Terminal Aerodrome Forecast
Issued by NWS Atlanta, GA

Home | Current Version | Previous Version | Text Only | Print | Product List | Glossary On
Versions: 1 2 3 4 5 6 7 8 9 10 11 12 13 14 15 16 17 18
000
FTUS42 KFFC 301700
TAFCSG
TAF
KCSG 301729Z 3018/3118 03005KT P6SM SCT045 SCT250
     FM310300 07003KT P6SM SCT250
     FM311600 11004KT P6SM SCT040=

USA.gov is the U.S. government's official web portal to all federal, state and local government web resources and services.